createdAt,value
2019-06-26T00:01:48.251Z,45.95
2019-06-26T00:04:19.920Z,46.00
2019-06-26T00:06:51.385Z,45.98
2019-06-26T00:09:20.582Z,45.97
2019-06-26T00:11:49.753Z,46.15
2019-06-26T00:14:22.213Z,46.19
2019-06-26T00:16:51.329Z,46.54
2019-06-26T00:19:20.857Z,46.44
2019-06-26T00:21:50.048Z,46.51
2019-06-26T00:24:19.197Z,46.67
2019-06-26T00:26:48.766Z,46.88
2019-06-26T00:29:17.927Z,47.04
2019-06-26T00:31:47.038Z,46.89
2019-06-26T00:34:16.250Z,47.04
2019-06-26T00:36:45.725Z,47.21
2019-06-26T00:39:14.964Z,47.15
2019-06-26T00:41:44.103Z,47.23
2019-06-26T00:44:13.315Z,47.31
2019-06-26T00:46:43.133Z,47.40
2019-06-26T00:49:12.725Z,47.29
2019-06-26T00:51:41.910Z,47.28
2019-06-26T00:54:11.210Z,47.27
2019-06-26T00:56:40.364Z,47.13
2019-06-26T00:59:09.475Z,47.11
2019-06-26T01:01:39.931Z,47.32
2019-06-26T01:04:13.846Z,47.34
2019-06-26T01:06:45.889Z,47.41
2019-06-26T01:09:15.575Z,47.73
2019-06-26T01:11:44.926Z,48.09
2019-06-26T01:14:14.383Z,47.88
2019-06-26T01:16:43.859Z,47.87
2019-06-26T01:19:13.091Z,47.95
2019-06-26T01:21:43.720Z,48.16
2019-06-26T01:24:12.877Z,48.21
2019-06-26T01:26:42.080Z,48.30
2019-06-26T01:29:11.255Z,48.35
2019-06-26T01:31:40.825Z,48.21
2019-06-26T01:34:26.534Z,48.44
2019-06-26T01:36:57.283Z,49.84
2019-06-26T01:39:28.560Z,50.35
2019-06-26T01:41:57.787Z,50.50
2019-06-26T01:44:26.886Z,50.59
2019-06-26T01:46:56.382Z,50.67
2019-06-26T01:49:25.557Z,50.88
2019-06-26T01:51:54.723Z,50.94
2019-06-26T01:54:25.333Z,51.41
2019-06-26T01:56:54.483Z,52.69
2019-06-26T01:59:23.685Z,53.23
2019-06-26T02:01:52.886Z,53.65
2019-06-26T02:04:23.465Z,54.08
2019-06-26T02:06:52.688Z,54.30
2019-06-26T02:09:22.118Z,54.69
2019-06-26T02:11:51.278Z,54.76
2019-06-26T02:14:30.340Z,54.72
2019-06-26T02:16:51.568Z,54.80
2019-06-26T02:19:21.182Z,54.96
2019-06-26T02:21:50.332Z,54.33
2019-06-26T02:24:19.772Z,53.70
2019-06-26T02:26:48.905Z,52.54
2019-06-26T02:29:18.166Z,52.73
2019-06-26T02:31:48.130Z,53.46
2019-06-26T02:34:17.275Z,53.11
2019-06-26T02:36:46.501Z,56.31
2019-06-26T02:39:16.447Z,58.11
2019-06-26T02:41:45.589Z,58.32
2019-06-26T02:44:14.739Z,58.68
2019-06-26T02:46:44.101Z,58.87
2019-06-26T02:49:13.498Z,59.14
2019-06-26T02:51:42.909Z,59.38
2019-06-26T02:54:12.119Z,60.31
2019-06-26T02:56:47.589Z,60.81
2019-06-26T02:59:16.817Z,61.39
2019-06-26T03:01:45.992Z,61.15
2019-06-26T03:04:15.165Z,61.12
2019-06-26T03:06:45.708Z,61.13
2019-06-26T03:09:14.853Z,61.46
2019-06-26T03:11:44.048Z,61.68
2019-06-26T03:14:13.475Z,61.55
2019-06-26T03:16:42.903Z,61.65
2019-06-26T03:19:12.116Z,61.68
2019-06-26T03:21:41.547Z,62.20
2019-06-26T03:24:11.420Z,62.27
2019-06-26T03:26:40.619Z,62.51
2019-06-26T03:29:10.048Z,62.09
2019-06-26T03:31:39.199Z,61.94
2019-06-26T03:34:08.302Z,61.96
2019-06-26T03:36:37.521Z,61.91
2019-06-26T03:39:08.666Z,62.04
2019-06-26T03:41:37.758Z,62.12
2019-06-26T03:44:07.026Z,61.82
2019-06-26T03:46:36.594Z,61.75
2019-06-26T03:49:06.199Z,61.36
2019-06-26T03:51:35.343Z,61.33
2019-06-26T03:54:05.358Z,61.18
2019-06-26T03:56:34.916Z,61.44
2019-06-26T03:59:04.411Z,61.35
2019-06-26T04:01:33.883Z,61.40
2019-06-26T04:04:06.414Z,61.37
2019-06-26T04:06:35.535Z,61.17
2019-06-26T04:09:05.917Z,61.10
2019-06-26T04:11:35.683Z,60.99
2019-06-26T04:14:05.565Z,61.05
2019-06-26T04:16:34.738Z,61.20
2019-06-26T04:19:04.261Z,61.28
2019-06-26T04:21:33.460Z,61.31
2019-06-26T04:24:05.696Z,61.00
2019-06-26T04:26:34.883Z,60.73
2019-06-26T04:29:04.135Z,60.33
2019-06-26T04:31:33.251Z,60.38
2019-06-26T04:34:04.493Z,60.21
2019-06-26T04:36:33.695Z,59.80
2019-06-26T04:39:03.412Z,60.01
2019-06-26T04:41:32.525Z,59.72
2019-06-26T04:44:02.618Z,59.81
2019-06-26T04:46:33.107Z,59.75
2019-06-26T04:49:03.024Z,59.61
2019-06-26T04:51:32.157Z,59.60
2019-06-26T04:54:01.301Z,59.71
2019-06-26T04:56:30.743Z,59.66
2019-06-26T04:58:59.922Z,59.64
2019-06-26T05:01:29.046Z,59.68
2019-06-26T05:03:58.576Z,59.73
2019-06-26T05:06:27.805Z,60.07
2019-06-26T05:08:57.000Z,60.39
2019-06-26T05:11:26.435Z,60.58
2019-06-26T05:13:55.708Z,61.01
2019-06-26T05:16:24.975Z,60.84
2019-06-26T05:18:54.176Z,61.05
2019-06-26T05:21:23.484Z,61.32
2019-06-26T05:23:53.007Z,61.15
2019-06-26T05:26:22.492Z,61.13
2019-06-26T05:28:52.770Z,60.63
2019-06-26T05:31:22.251Z,60.08
2019-06-26T05:33:52.441Z,59.81
2019-06-26T05:36:21.704Z,60.30
2019-06-26T05:38:52.210Z,60.16
2019-06-26T05:41:21.394Z,60.02
2019-06-26T05:43:50.601Z,60.08
2019-06-26T05:46:30.412Z,60.27
2019-06-26T05:48:51.478Z,60.46
2019-06-26T05:51:20.709Z,60.89
2019-06-26T05:53:50.125Z,61.21
2019-06-26T05:56:19.670Z,61.22
2019-06-26T05:58:48.844Z,61.54
2019-06-26T06:01:19.031Z,61.83
2019-06-26T06:03:51.304Z,61.90
2019-06-26T06:06:20.579Z,61.71
2019-06-26T06:08:55.051Z,61.56
2019-06-26T06:11:24.417Z,61.18
2019-06-26T06:13:53.642Z,61.19
2019-06-26T06:16:23.190Z,60.91
2019-06-26T06:18:52.615Z,60.64
2019-06-26T06:21:21.902Z,60.61
2019-06-26T06:23:51.418Z,60.45
2019-06-26T06:26:20.663Z,60.67
2019-06-26T06:28:49.915Z,60.54
2019-06-26T06:31:21.681Z,60.22
2019-06-26T06:33:50.873Z,59.80
2019-06-26T06:36:21.287Z,59.72
2019-06-26T06:38:52.004Z,59.58
2019-06-26T06:41:21.824Z,59.52
2019-06-26T06:43:52.955Z,59.53
2019-06-26T06:46:22.359Z,59.71
2019-06-26T06:48:51.545Z,59.29
2019-06-26T06:51:22.002Z,59.17
2019-06-26T06:53:51.212Z,59.50
2019-06-26T06:56:21.069Z,59.18
2019-06-26T06:58:55.814Z,59.11
2019-06-26T07:01:25.252Z,58.96
2019-06-26T07:03:58.238Z,58.67
2019-06-26T07:06:30.817Z,58.53
2019-06-26T07:09:13.197Z,58.62
2019-06-26T07:11:44.328Z,58.47
2019-06-26T07:14:15.399Z,58.33
2019-06-26T07:16:44.980Z,57.90
2019-06-26T07:19:14.208Z,57.42
2019-06-26T07:21:43.390Z,57.21
2019-06-26T07:24:12.907Z,57.16
2019-06-26T07:26:42.224Z,57.28
2019-06-26T07:29:11.356Z,56.97
2019-06-26T07:31:41.168Z,56.60
2019-06-26T07:34:10.425Z,55.87
2019-06-26T07:36:39.735Z,56.04
2019-06-26T07:39:09.251Z,55.17
2019-06-26T07:41:41.798Z,54.54
2019-06-26T07:44:11.140Z,54.06
2019-06-26T07:46:43.906Z,54.44
2019-06-26T07:49:15.002Z,54.52
2019-06-26T07:51:44.283Z,54.17
2019-06-26T07:54:13.700Z,54.00
2019-06-26T07:56:43.118Z,53.67
2019-06-26T07:59:12.308Z,53.80
2019-06-26T08:01:41.845Z,54.03
2019-06-26T08:04:11.092Z,54.34
2019-06-26T08:06:40.900Z,54.37
2019-06-26T08:09:10.289Z,54.21
2019-06-26T08:11:40.321Z,54.38
2019-06-26T08:14:13.520Z,54.31
2019-06-26T08:16:42.872Z,54.38
2019-06-26T08:19:12.049Z,54.08
2019-06-26T08:21:47.018Z,52.09
2019-06-26T08:24:16.288Z,52.11
2019-06-26T08:26:45.482Z,51.48
2019-06-26T08:29:14.605Z,50.13
2019-06-26T08:31:43.991Z,49.54
2019-06-26T08:34:13.144Z,49.30
2019-06-26T08:36:42.392Z,48.72
2019-06-26T08:39:11.907Z,48.20
2019-06-26T08:41:41.246Z,48.15
2019-06-26T08:44:10.469Z,48.15
2019-06-26T08:46:40.197Z,47.52
2019-06-26T08:49:24.278Z,47.43
2019-06-26T08:51:40.730Z,47.52
2019-06-26T08:54:09.965Z,47.51
2019-06-26T08:56:39.583Z,46.88
2019-06-26T08:59:08.692Z,46.39
2019-06-26T09:01:37.884Z,46.35
2019-06-26T09:04:07.142Z,45.90
2019-06-26T09:06:36.633Z,45.71
2019-06-26T09:09:07.393Z,45.67
2019-06-26T09:11:36.594Z,45.61
2019-06-26T09:14:10.167Z,45.78
2019-06-26T09:16:39.356Z,45.45
2019-06-26T09:19:11.437Z,45.09
2019-06-26T09:21:41.974Z,45.11
2019-06-26T09:24:11.158Z,45.39
2019-06-26T09:26:40.417Z,45.50
2019-06-26T09:29:12.465Z,44.93
2019-06-26T09:31:41.856Z,44.80
2019-06-26T09:34:10.978Z,45.18
2019-06-26T09:36:40.700Z,45.34
2019-06-26T09:39:09.900Z,45.13
2019-06-26T09:41:39.162Z,44.54
2019-06-26T09:44:08.710Z,43.98
2019-06-26T09:46:37.989Z,43.53
2019-06-26T09:49:07.198Z,43.50
2019-06-26T09:51:37.706Z,43.60
2019-06-26T09:54:07.194Z,43.24
2019-06-26T09:56:36.459Z,43.53
2019-06-26T09:59:07.966Z,43.24
2019-06-26T10:01:37.452Z,43.05
2019-06-26T10:04:06.663Z,42.58
2019-06-26T10:06:36.314Z,42.80
2019-06-26T10:09:07.214Z,42.68
2019-06-26T10:11:36.700Z,42.48
2019-06-26T10:14:09.748Z,42.01
2019-06-26T10:16:39.035Z,41.94
2019-06-26T10:19:11.239Z,41.40
2019-06-26T10:21:43.770Z,39.54
2019-06-26T10:24:14.490Z,40.49
2019-06-26T10:26:44.800Z,40.69
2019-06-26T10:29:14.319Z,40.82
2019-06-26T10:31:44.462Z,40.71
2019-06-26T10:34:14.072Z,39.80
2019-06-26T10:36:43.785Z,39.09
2019-06-26T10:39:13.331Z,39.00
2019-06-26T10:41:45.072Z,39.02
2019-06-26T10:44:14.716Z,39.30
2019-06-26T10:46:43.994Z,39.17
2019-06-26T10:49:26.586Z,38.94
2019-06-26T10:51:44.669Z,38.28
2019-06-26T10:54:14.021Z,38.49
2019-06-26T10:56:43.673Z,38.03
2019-06-26T10:59:13.189Z,37.54
2019-06-26T11:01:44.069Z,37.33
2019-06-26T11:04:14.000Z,37.14
2019-06-26T11:06:43.911Z,36.37
2019-06-26T11:09:13.853Z,36.45
2019-06-26T11:11:47.496Z,35.95
2019-06-26T11:14:23.225Z,35.82
2019-06-26T11:16:53.285Z,35.82
2019-06-26T11:19:23.145Z,35.48
2019-06-26T11:21:53.139Z,35.59
2019-06-26T11:24:23.649Z,35.60
2019-06-26T11:26:54.072Z,35.65
2019-06-26T11:29:23.909Z,34.94
2019-06-26T11:31:54.356Z,34.60
2019-06-26T11:34:24.245Z,34.73
2019-06-26T11:37:03.625Z,35.24
2019-06-26T11:39:26.366Z,35.05
2019-06-26T11:41:56.464Z,34.74
2019-06-26T11:44:27.484Z,34.81
2019-06-26T11:46:58.001Z,34.56
2019-06-26T11:49:30.090Z,34.15
2019-06-26T11:52:01.056Z,33.94
2019-06-26T11:54:31.012Z,36.60
2019-06-26T11:57:03.471Z,33.81
2019-06-26T11:59:34.635Z,34.18
2019-06-26T12:02:07.645Z,34.98
2019-06-26T12:04:40.426Z,36.39
2019-06-26T12:07:10.394Z,37.51
2019-06-26T12:09:41.005Z,34.69
2019-06-26T12:12:11.691Z,35.79
2019-06-26T12:14:42.692Z,37.62
2019-06-26T12:17:12.952Z,34.80
2019-06-26T12:19:43.400Z,33.65
2019-06-26T12:22:15.031Z,34.09
2019-06-26T12:24:45.317Z,34.26
2019-06-26T12:27:17.126Z,31.69
2019-06-26T12:29:49.859Z,32.03
2019-06-26T12:32:22.198Z,30.64
2019-06-26T12:34:53.366Z,30.14
2019-06-26T12:37:37.029Z,29.67
2019-06-26T12:39:59.980Z,29.35
2019-06-26T12:42:30.472Z,28.07
2019-06-26T12:45:00.751Z,27.17
2019-06-26T12:47:31.140Z,27.39
2019-06-26T12:50:03.719Z,26.08
2019-06-26T12:52:33.659Z,25.72
2019-06-26T12:55:03.814Z,25.40
2019-06-26T12:57:34.535Z,24.79
2019-06-26T13:00:06.290Z,24.40
2019-06-26T13:02:40.641Z,24.39
2019-06-26T13:05:11.018Z,23.95
2019-06-26T13:07:41.487Z,23.27
2019-06-26T13:10:12.311Z,22.55
2019-06-26T13:12:45.790Z,22.58
2019-06-26T13:15:15.879Z,21.38
2019-06-26T13:17:45.991Z,20.85
2019-06-26T13:20:17.491Z,20.66
2019-06-26T13:22:47.739Z,20.51
2019-06-26T13:25:19.679Z,20.48
2019-06-26T13:27:49.694Z,19.65
2019-06-26T13:30:34.443Z,19.29
2019-06-26T13:33:08.375Z,20.06
2019-06-26T13:35:46.107Z,19.16
2019-06-26T13:38:21.039Z,19.19
2019-06-26T13:40:51.290Z,18.48
2019-06-26T13:43:22.285Z,18.65
2019-06-26T13:45:58.734Z,18.66
2019-06-26T13:48:28.312Z,18.02
2019-06-26T13:51:08.864Z,17.54
2019-06-26T13:53:32.234Z,17.79
2019-06-26T13:56:07.249Z,18.17
2019-06-26T13:58:38.381Z,17.52
2019-06-26T14:01:10.073Z,17.84
2019-06-26T14:03:43.235Z,17.48
2019-06-26T14:06:16.134Z,17.07
2019-06-26T14:08:46.447Z,16.45
2019-06-26T14:11:19.925Z,16.94
2019-06-26T14:13:53.701Z,17.33
2019-06-26T14:16:29.906Z,16.94
2019-06-26T14:19:03.910Z,16.79
2019-06-26T14:21:34.555Z,16.09
2019-06-26T14:24:05.965Z,16.07
2019-06-26T14:26:39.722Z,15.97
2019-06-26T14:29:33.832Z,15.84
2019-06-26T14:32:08.879Z,15.62
2019-06-26T14:34:46.558Z,15.06
2019-06-26T14:37:19.390Z,15.21
2019-06-26T14:39:52.908Z,15.06
2019-06-26T14:42:26.850Z,14.85
2019-06-26T14:44:58.946Z,14.59
2019-06-26T14:47:40.573Z,14.64
2019-06-26T14:50:12.688Z,14.87
2019-06-26T14:52:46.766Z,14.57
2019-06-26T14:55:23.074Z,14.40
2019-06-26T14:57:56.933Z,14.52
2019-06-26T15:00:32.573Z,14.93
2019-06-26T15:03:06.338Z,14.54
2019-06-26T15:05:39.664Z,14.70
2019-06-26T15:08:10.230Z,14.49
2019-06-26T15:10:41.295Z,14.55
2019-06-26T15:13:16.343Z,15.03
2019-06-26T15:15:46.884Z,15.14
2019-06-26T15:18:18.655Z,14.87
2019-06-26T15:20:49.397Z,14.89
2019-06-26T15:23:25.931Z,14.64
2019-06-26T15:25:59.811Z,14.88
2019-06-26T15:28:31.414Z,14.65
2019-06-26T15:31:03.512Z,14.73
2019-06-26T15:33:36.685Z,15.01
2019-06-26T15:36:10.352Z,15.28
2019-06-26T15:38:41.504Z,15.33
2019-06-26T15:41:12.434Z,15.60
2019-06-26T15:43:42.674Z,16.16
2019-06-26T15:46:13.180Z,16.43
2019-06-26T15:48:50.244Z,16.58
2019-06-26T15:51:22.381Z,17.23
2019-06-26T15:56:31.142Z,17.96
2019-06-26T15:59:01.841Z,18.07
2019-06-26T16:01:34.545Z,18.41
2019-06-26T16:04:10.179Z,18.44
2019-06-26T16:06:41.254Z,18.54
2019-06-26T16:09:11.839Z,18.81
2019-06-26T16:11:43.937Z,19.32
2019-06-26T16:14:19.157Z,19.38
2019-06-26T16:16:53.758Z,19.47
2019-06-26T16:19:26.462Z,19.61
2019-06-26T16:21:59.956Z,19.95
2019-06-26T16:24:30.408Z,20.05
2019-06-26T16:27:20.553Z,20.05
2019-06-26T16:29:53.884Z,20.27
2019-06-26T16:32:32.721Z,20.56
2019-06-26T16:35:06.193Z,20.83
2019-06-26T16:37:36.703Z,21.15
2019-06-26T16:40:11.149Z,20.99
2019-06-26T16:42:42.120Z,20.91
2019-06-26T16:45:16.420Z,20.59
2019-06-26T16:47:56.844Z,20.87
2019-06-26T16:50:45.958Z,21.03
2019-06-26T16:53:18.879Z,21.03
2019-06-26T16:55:49.974Z,21.00
2019-06-26T16:58:22.945Z,20.85
2019-06-26T17:00:54.732Z,21.15
2019-06-26T17:03:29.223Z,22.68
2019-06-26T17:06:00.602Z,21.41
2019-06-26T17:08:33.622Z,20.83
2019-06-26T17:11:04.368Z,21.04
2019-06-26T17:13:36.840Z,20.82
2019-06-26T17:16:13.442Z,20.87
2019-06-26T17:18:44.055Z,20.92
2019-06-26T17:21:16.407Z,21.28
2019-06-26T17:23:49.799Z,21.06
2019-06-26T17:26:21.766Z,21.14
2019-06-26T17:28:53.181Z,21.10
2019-06-26T17:31:26.930Z,21.20
2019-06-26T17:33:57.522Z,21.49
2019-06-26T17:36:45.099Z,21.64
2019-06-26T17:39:27.190Z,21.93
2019-06-26T17:42:00.156Z,21.78
2019-06-26T17:44:33.943Z,22.07
2019-06-26T17:47:05.721Z,22.34
2019-06-26T17:49:40.537Z,22.55
2019-06-26T17:52:12.868Z,22.92
2019-06-26T17:54:43.176Z,23.02
2019-06-26T17:57:13.711Z,23.11
2019-06-26T17:59:51.437Z,23.24
2019-06-26T18:02:26.646Z,23.43
2019-06-26T18:05:03.071Z,23.68
2019-06-26T18:07:43.927Z,24.13
2019-06-26T18:10:16.324Z,24.21
2019-06-26T18:12:55.996Z,24.22
2019-06-26T18:15:27.464Z,24.45
2019-06-26T18:18:11.092Z,24.68
2019-06-26T18:20:41.708Z,24.71
2019-06-26T18:23:17.433Z,25.12
2019-06-26T18:25:54.119Z,24.63
2019-06-26T18:28:24.233Z,24.80
2019-06-26T18:30:55.738Z,25.48
2019-06-26T18:33:27.762Z,25.89
2019-06-26T18:35:59.361Z,25.89
2019-06-26T18:38:36.529Z,25.76
2019-06-26T18:41:18.642Z,25.92
2019-06-26T18:43:51.294Z,26.31
2019-06-26T18:46:37.395Z,26.50
2019-06-26T18:49:09.795Z,26.59
2019-06-26T18:51:40.649Z,26.89
2019-06-26T18:54:12.389Z,26.89
2019-06-26T18:56:44.136Z,27.07
2019-06-26T18:59:34.790Z,27.08
2019-06-26T19:02:14.077Z,27.12
2019-06-26T19:04:54.047Z,27.65
2019-06-26T19:07:30.794Z,27.37
2019-06-26T19:10:02.959Z,27.64
2019-06-26T19:12:36.387Z,27.70
2019-06-26T19:15:13.593Z,27.67
2019-06-26T19:17:50.754Z,27.82
2019-06-26T19:20:46.375Z,27.90
2019-06-26T19:23:21.496Z,28.01
2019-06-26T19:25:54.012Z,28.05
2019-06-26T19:28:26.363Z,28.54
2019-06-26T19:31:01.200Z,28.43
2019-06-26T19:33:36.424Z,32.79
2019-06-26T19:36:12.727Z,34.34
2019-06-26T19:38:45.962Z,34.54
2019-06-26T19:41:16.848Z,34.83
2019-06-26T19:43:47.363Z,36.04
2019-06-26T19:46:33.902Z,38.80
2019-06-26T19:49:05.036Z,39.26
2019-06-26T19:51:41.020Z,39.63
2019-06-26T19:54:26.492Z,39.97
2019-06-26T19:56:55.911Z,39.47
2019-06-26T19:59:31.442Z,41.01
2019-06-26T20:02:06.426Z,41.63
2019-06-26T20:04:39.499Z,41.06
2019-06-26T20:07:18.811Z,41.26
2019-06-26T20:09:52.335Z,41.74
2019-06-26T20:12:28.709Z,40.14
2019-06-26T20:15:00.105Z,40.18
2019-06-26T20:17:34.322Z,40.84
2019-06-26T20:20:12.807Z,41.55
2019-06-26T20:25:44.233Z,39.82
2019-06-26T20:28:17.484Z,41.18
2019-06-26T20:30:49.262Z,41.13
2019-06-26T20:33:22.179Z,42.12
2019-06-26T20:35:56.612Z,42.66
2019-06-26T20:38:35.911Z,41.02
2019-06-26T20:41:12.503Z,39.02
2019-06-26T20:44:07.579Z,39.15
2019-06-26T20:46:45.790Z,39.10
2019-06-26T20:49:16.732Z,38.23
2019-06-26T20:51:50.082Z,38.22
2019-06-26T20:54:21.891Z,39.86
2019-06-26T20:56:53.756Z,39.38
2019-06-26T20:59:26.514Z,37.32
2019-06-26T21:01:57.119Z,38.87
2019-06-26T21:04:30.996Z,39.72
2019-06-26T21:07:02.265Z,37.77
2019-06-26T21:09:34.903Z,38.26
2019-06-26T21:12:08.175Z,39.21
2019-06-26T21:14:38.611Z,37.71
2019-06-26T21:17:10.610Z,39.09
2019-06-26T21:19:40.837Z,39.77
2019-06-26T21:22:13.734Z,40.72
2019-06-26T21:24:44.744Z,39.89
2019-06-26T21:27:14.789Z,39.04
2019-06-26T21:29:44.623Z,39.51
2019-06-26T21:32:14.734Z,39.60
2019-06-26T21:34:44.620Z,38.96
2019-06-26T21:37:14.507Z,38.55
2019-06-26T21:39:45.077Z,38.61
2019-06-26T21:42:15.291Z,38.82
2019-06-26T21:44:44.480Z,39.25
2019-06-26T21:47:14.213Z,38.25
2019-06-26T21:49:43.418Z,38.81
2019-06-26T21:52:12.610Z,38.82
2019-06-26T21:54:42.286Z,39.15
2019-06-26T21:57:11.516Z,39.15
2019-06-26T21:59:43.245Z,38.49
2019-06-26T22:02:12.867Z,38.91
2019-06-26T22:04:42.245Z,38.44
2019-06-26T22:07:11.593Z,39.02
2019-06-26T22:09:42.410Z,39.00
2019-06-26T22:12:11.846Z,40.19
2019-06-26T22:14:41.013Z,40.58
2019-06-26T22:17:10.521Z,39.71
2019-06-26T22:19:40.251Z,40.51
2019-06-26T22:22:09.482Z,39.83
2019-06-26T22:24:41.085Z,39.82
2019-06-26T22:27:10.359Z,40.49
2019-06-26T22:29:39.739Z,40.67
2019-06-26T22:32:12.635Z,40.41
2019-06-26T22:34:41.917Z,40.22
2019-06-26T22:37:15.132Z,40.99
2019-06-26T22:39:48.863Z,40.55
2019-06-26T22:42:18.054Z,40.47
2019-06-26T22:44:47.288Z,40.57
2019-06-26T22:47:19.936Z,40.71
2019-06-26T22:49:50.855Z,40.80
2019-06-26T22:52:20.029Z,40.71
2019-06-26T22:54:57.716Z,41.02
2019-06-26T22:57:26.931Z,41.31
2019-06-26T22:59:56.500Z,41.42
2019-06-26T23:02:25.820Z,41.20
2019-06-26T23:04:55.049Z,41.26
2019-06-26T23:07:24.754Z,41.67
2019-06-26T23:09:54.006Z,41.33
2019-06-26T23:12:23.212Z,41.35
2019-06-26T23:14:54.787Z,41.78
2019-06-26T23:17:24.073Z,41.72
2019-06-26T23:19:53.280Z,41.93
2019-06-26T23:22:24.137Z,41.55
2019-06-26T23:24:56.076Z,41.63
2019-06-26T23:27:25.475Z,41.94
2019-06-26T23:29:55.037Z,41.82
2019-06-26T23:32:24.392Z,41.78
2019-06-26T23:34:53.718Z,41.87
2019-06-26T23:37:23.367Z,41.94
2019-06-26T23:39:53.097Z,41.94
2019-06-26T23:42:22.826Z,42.01
2019-06-26T23:44:53.493Z,41.96
2019-06-26T23:47:22.813Z,41.95
2019-06-26T23:49:52.078Z,42.22
2019-06-26T23:52:21.814Z,42.21
2019-06-26T23:54:51.138Z,42.63
2019-06-26T23:57:21.404Z,42.62
2019-06-26T23:59:51.857Z,42.58
